createdAt,value
2022-12-05T00:09:39.371Z,101286.78
2022-12-05T00:24:42.653Z,101287.91
2022-12-05T00:39:45.829Z,101299.11
2022-12-05T00:54:49.187Z,101284.28
2022-12-05T01:09:52.483Z,101277.34
2022-12-05T01:24:56.100Z,101264.84
2022-12-05T01:39:59.399Z,101241.43
2022-12-05T01:55:15.634Z,101219.86
2022-12-05T02:10:19.586Z,101223.05
2022-12-05T02:25:22.751Z,101238.80
2022-12-05T02:40:58.224Z,101243.06
2022-12-05T02:56:02.267Z,101223.70
2022-12-05T03:11:06.586Z,101230.98
2022-12-05T03:26:30.802Z,101216.84
2022-12-05T03:42:00.102Z,101222.81
2022-12-05T03:57:09.538Z,101221.39
2022-12-05T04:12:18.938Z,101223.21
2022-12-05T04:27:31.414Z,101214.48
2022-12-05T04:42:37.466Z,101197.10
2022-12-05T04:57:53.321Z,101178.25
2022-12-05T05:12:56.726Z,101182.48
2022-12-05T05:28:00.075Z,101197.07
2022-12-05T05:43:04.216Z,101204.35
2022-12-05T05:58:07.699Z,101203.73
2022-12-05T06:13:10.851Z,101196.79
2022-12-05T06:28:14.366Z,101197.67
2022-12-05T06:43:17.748Z,101198.93
2022-12-05T06:58:20.885Z,101204.95
2022-12-05T07:13:24.704Z,101216.45
2022-12-05T07:28:29.034Z,101217.33
2022-12-05T07:43:32.477Z,101210.23
2022-12-05T07:58:36.551Z,101199.25
2022-12-05T08:13:40.509Z,101197.18
2022-12-05T08:28:45.081Z,101187.06
2022-12-05T08:43:48.244Z,101186.02
2022-12-05T08:58:51.412Z,101179.64
2022-12-05T09:13:57.926Z,101180.65
2022-12-05T09:29:02.817Z,101172.46
2022-12-05T09:44:18.293Z,101168.82
2022-12-05T09:59:21.921Z,101159.41
2022-12-05T10:14:31.521Z,101151.09
2022-12-05T10:29:48.302Z,101129.21
2022-12-05T10:44:58.402Z,101106.99
2022-12-05T11:00:15.686Z,101101.70
2022-12-05T11:15:25.973Z,101097.66
2022-12-05T11:30:30.315Z,101079.00
2022-12-05T11:45:42.673Z,101058.59
2022-12-05T12:01:18.644Z,101038.56
2022-12-05T12:16:46.230Z,101011.93
2022-12-05T12:32:16.159Z,100997.50
2022-12-05T12:47:40.818Z,100985.08
2022-12-05T13:02:54.644Z,100984.46
2022-12-05T13:17:58.524Z,100986.16
2022-12-05T13:33:08.545Z,100986.16
2022-12-05T13:48:34.235Z,100966.39
2022-12-05T14:03:40.411Z,100938.95
2022-12-05T14:18:58.672Z,100906.09
2022-12-05T14:34:27.783Z,100876.00
2022-12-05T14:49:54.322Z,100896.73
2022-12-05T15:05:04.581Z,100898.06
2022-12-05T15:20:40.065Z,100896.16
2022-12-05T15:35:48.375Z,100892.56
2022-12-05T15:50:53.764Z,100884.89
2022-12-05T16:06:05.016Z,100867.23
2022-12-05T16:21:31.900Z,100861.67
2022-12-05T16:36:47.188Z,100861.88
2022-12-05T16:51:59.311Z,100845.98
2022-12-05T17:07:02.536Z,100843.14
2022-12-05T17:22:06.661Z,100831.27
2022-12-05T17:37:09.941Z,100825.36
2022-12-05T17:52:21.601Z,100818.45
2022-12-05T18:07:25.314Z,100801.41
2022-12-05T18:22:28.697Z,100800.01
2022-12-05T18:37:36.146Z,100788.06
2022-12-05T18:52:39.497Z,100773.42
2022-12-05T19:07:42.934Z,100752.45
2022-12-05T19:22:46.197Z,100751.42
2022-12-05T19:37:49.537Z,100752.98
2022-12-05T19:52:52.757Z,100756.89
2022-12-05T20:07:56.229Z,100754.49
2022-12-05T20:22:59.630Z,100742.40
2022-12-05T20:38:03.452Z,100738.38
2022-12-05T20:53:06.833Z,100717.92
2022-12-05T21:08:10.281Z,100713.14
2022-12-05T21:23:13.675Z,100704.52
2022-12-05T21:38:17.087Z,100706.48
2022-12-05T21:53:20.915Z,100698.84
2022-12-05T22:08:24.130Z,100674.27
2022-12-05T22:23:28.356Z,100664.39
2022-12-05T22:38:33.876Z,100644.84
2022-12-05T22:53:38.990Z,100618.13
2022-12-05T23:08:43.797Z,100608.72
2022-12-05T23:23:48.734Z,100592.55
2022-12-05T23:38:52.320Z,100584.54
2022-12-05T23:53:58.001Z,100575.00
